createdAt,value
2019-03-21T00:04:27.969Z,20.20
2019-03-21T00:09:32.430Z,21.00
2019-03-21T00:14:49.078Z,21.87
2019-03-21T00:19:53.380Z,20.57
2019-03-21T00:24:57.842Z,22.57
2019-03-21T00:30:02.074Z,24.07
2019-03-21T00:35:07.091Z,24.00
2019-03-21T00:40:14.187Z,23.40
2019-03-21T00:45:18.413Z,24.50
2019-03-21T00:50:23.607Z,24.93
2019-03-21T00:55:28.277Z,25.40
2019-03-21T01:00:35.766Z,25.10
2019-03-21T01:05:40.234Z,24.47
2019-03-21T01:10:44.470Z,23.33
2019-03-21T01:15:48.685Z,25.00
2019-03-21T01:20:52.911Z,26.63
2019-03-21T01:25:57.791Z,27.17
2019-03-21T01:31:02.277Z,25.67
2019-03-21T01:36:06.627Z,27.63
2019-03-21T01:41:10.965Z,27.20
2019-03-21T01:46:16.074Z,26.93
2019-03-21T01:51:20.321Z,28.97
2019-03-21T01:56:24.683Z,29.00
2019-03-21T02:01:28.922Z,27.47
2019-03-21T02:06:33.483Z,29.83
2019-03-21T02:11:38.993Z,28.90
2019-03-21T02:16:43.229Z,29.37
2019-03-21T02:21:47.526Z,28.23
2019-03-21T02:26:51.737Z,29.37
2019-03-21T02:31:56.194Z,28.50
2019-03-21T02:37:00.413Z,29.50
2019-03-21T02:42:04.638Z,28.67
2019-03-21T02:47:08.851Z,29.20
2019-03-21T02:52:13.061Z,30.13
2019-03-21T02:57:17.278Z,28.33
2019-03-21T03:02:21.567Z,29.40
2019-03-21T03:07:25.774Z,30.70
2019-03-21T03:12:30.002Z,29.47
2019-03-21T03:17:34.213Z,31.10
2019-03-21T03:22:38.505Z,29.23
2019-03-21T03:27:42.797Z,29.80
2019-03-21T03:32:47.047Z,29.43
2019-03-21T03:37:51.276Z,29.80
2019-03-21T03:42:55.475Z,29.83
2019-03-21T03:47:59.695Z,31.03
2019-03-21T03:53:04.113Z,29.67
2019-03-21T03:58:10.814Z,28.57
2019-03-21T04:03:15.036Z,29.67
2019-03-21T04:08:19.348Z,29.50
2019-03-21T04:13:23.688Z,29.63
2019-03-21T04:18:27.914Z,30.50
2019-03-21T04:23:32.126Z,32.00
2019-03-21T04:28:36.339Z,29.67
2019-03-21T04:33:40.829Z,31.33
2019-03-21T04:38:45.067Z,31.47
2019-03-21T04:43:49.402Z,30.57
2019-03-21T04:48:53.683Z,31.30
2019-03-21T04:53:57.885Z,30.27
2019-03-21T04:59:02.179Z,30.63
2019-03-21T05:04:06.403Z,29.67
2019-03-21T05:09:14.152Z,31.23
2019-03-21T05:14:19.032Z,30.37
2019-03-21T05:19:23.246Z,30.87
2019-03-21T05:24:27.517Z,30.67
2019-03-21T05:29:32.146Z,31.50
2019-03-21T05:34:36.644Z,31.37
2019-03-21T05:39:40.907Z,32.00
2019-03-21T05:44:45.149Z,31.90
2019-03-21T05:49:49.629Z,32.10
2019-03-21T05:54:54.117Z,31.47
2019-03-21T06:00:15.450Z,31.80
2019-03-21T06:05:20.072Z,31.30
2019-03-21T06:10:24.488Z,32.03
2019-03-21T06:15:30.763Z,30.67
2019-03-21T06:20:57.453Z,32.73
2019-03-21T06:26:26.730Z,32.33
2019-03-21T06:31:30.938Z,31.17
2019-03-21T06:36:35.155Z,31.83
2019-03-21T06:41:39.738Z,31.93
2019-03-21T06:46:49.470Z,30.27
2019-03-21T06:51:51.248Z,29.37
2019-03-21T06:56:55.796Z,29.13
2019-03-21T07:02:00.218Z,29.73
2019-03-21T07:07:08.516Z,28.07
2019-03-21T07:12:10.606Z,29.73
2019-03-21T07:17:14.813Z,32.10
2019-03-21T07:22:19.087Z,28.47
2019-03-21T07:27:23.309Z,31.50
2019-03-21T07:32:33.287Z,27.50
2019-03-21T07:37:33.457Z,27.50
2019-03-21T07:42:37.679Z,27.30
2019-03-21T07:47:42.060Z,27.27
2019-03-21T07:52:46.330Z,30.13
2019-03-21T07:57:50.558Z,29.20
2019-03-21T08:02:54.833Z,30.17
2019-03-21T08:07:59.038Z,29.73
2019-03-21T08:13:03.237Z,29.53
2019-03-21T08:18:07.444Z,29.33
2019-03-21T08:23:11.658Z,28.57
2019-03-21T08:28:15.865Z,32.40
2019-03-21T08:33:20.067Z,30.33
2019-03-21T08:38:24.752Z,34.60
2019-03-21T08:43:28.951Z,31.17
2019-03-21T08:48:33.158Z,31.97
2019-03-21T08:53:37.502Z,28.07
2019-03-21T08:58:41.688Z,28.63
2019-03-21T09:03:45.873Z,25.67
2019-03-21T09:08:50.060Z,25.03
2019-03-21T09:13:54.258Z,27.83
2019-03-21T09:18:58.450Z,24.07
2019-03-21T09:24:02.685Z,24.03
2019-03-21T09:29:06.920Z,23.90
2019-03-21T09:34:11.209Z,21.73
2019-03-21T09:39:15.490Z,23.83
2019-03-21T09:44:27.061Z,25.53
2019-03-21T09:49:31.255Z,20.23
2019-03-21T09:54:35.451Z,28.47
2019-03-21T09:59:39.635Z,21.83
2019-03-21T10:04:43.825Z,21.70
2019-03-21T10:09:48.367Z,20.93
2019-03-21T10:14:52.663Z,20.80
2019-03-21T10:19:56.845Z,21.93
2019-03-21T10:25:01.041Z,21.03
2019-03-21T10:30:06.561Z,20.17
2019-03-21T10:35:10.829Z,20.83
2019-03-21T10:40:15.028Z,19.60
2019-03-21T10:45:19.291Z,20.63
2019-03-21T10:50:34.098Z,18.87
2019-03-21T10:55:38.885Z,19.60
2019-03-21T11:00:43.087Z,17.87
2019-03-21T11:05:47.356Z,18.57
2019-03-21T11:10:51.571Z,18.60
2019-03-21T11:15:55.770Z,18.70
2019-03-21T11:20:59.973Z,19.47
2019-03-21T11:26:04.245Z,19.33
2019-03-21T11:31:08.439Z,21.10
2019-03-21T11:36:12.615Z,21.90
2019-03-21T11:41:16.843Z,23.53
2019-03-21T11:46:21.039Z,22.57
2019-03-21T11:51:25.484Z,21.87
2019-03-21T11:56:29.688Z,20.27
2019-03-21T12:01:33.897Z,20.60
2019-03-21T12:06:38.135Z,20.43
2019-03-21T12:11:42.694Z,22.63
2019-03-21T12:16:46.966Z,25.00
2019-03-21T12:21:51.152Z,22.50
2019-03-21T12:26:55.343Z,19.13
2019-03-21T12:31:59.544Z,19.00
2019-03-21T12:37:03.723Z,19.37
2019-03-21T12:42:07.924Z,19.20
2019-03-21T12:47:12.132Z,19.57
2019-03-21T12:52:16.321Z,19.50
2019-03-21T12:57:20.589Z,21.40
2019-03-21T13:02:32.263Z,18.20
2019-03-21T13:07:34.103Z,17.67
2019-03-21T13:12:38.426Z,19.40
2019-03-21T13:17:42.637Z,18.77
2019-03-21T13:22:52.770Z,19.07
2019-03-21T13:27:52.896Z,18.53
2019-03-21T13:32:57.105Z,18.70
2019-03-21T13:38:01.380Z,18.57
2019-03-21T13:43:05.987Z,19.57
2019-03-21T13:48:10.178Z,19.83
2019-03-21T13:53:19.059Z,19.43
2019-03-21T13:58:21.076Z,19.33
2019-03-21T14:03:25.595Z,18.47
2019-03-21T14:08:30.704Z,18.43
2019-03-21T14:13:34.937Z,18.40
2019-03-21T14:18:39.133Z,17.50
2019-03-21T14:23:43.802Z,17.90
2019-03-21T14:28:48.149Z,18.50
2019-03-21T14:33:52.457Z,17.27
2019-03-21T14:38:56.672Z,16.93
2019-03-21T14:44:00.890Z,18.00
2019-03-21T14:49:05.185Z,17.40
2019-03-21T14:54:09.708Z,16.90
2019-03-21T14:59:13.905Z,16.57
2019-03-21T15:04:18.941Z,17.07
2019-03-21T15:09:23.142Z,16.97
2019-03-21T15:14:27.723Z,17.33
2019-03-21T15:19:33.773Z,16.53
2019-03-21T15:24:38.315Z,15.80
2019-03-21T15:29:42.534Z,17.10
2019-03-21T15:34:46.801Z,17.23
2019-03-21T15:39:51.060Z,17.90
2019-03-21T15:45:10.272Z,18.70
2019-03-21T15:50:01.196Z,18.57
2019-03-21T15:55:06.165Z,17.50
2019-03-21T16:00:12.979Z,18.63
2019-03-21T16:05:17.204Z,17.90
2019-03-21T16:10:22.046Z,18.00
2019-03-21T16:15:26.275Z,17.77
2019-03-21T16:20:30.558Z,17.47
2019-03-21T16:25:34.829Z,18.03
2019-03-21T16:30:39.129Z,17.00
2019-03-21T16:35:43.323Z,17.83
2019-03-21T16:40:47.589Z,17.77
2019-03-21T16:45:57.620Z,17.70
2019-03-21T16:51:03.043Z,17.93
2019-03-21T16:56:07.588Z,18.13
2019-03-21T17:01:11.805Z,18.70
2019-03-21T17:06:16.005Z,20.57
2019-03-21T17:11:20.239Z,18.63
2019-03-21T17:16:24.533Z,17.17
2019-03-21T17:21:29.858Z,19.17
2019-03-21T17:26:34.063Z,19.90
2019-03-21T17:31:39.346Z,20.63
2019-03-21T17:36:43.544Z,19.67
2019-03-21T17:41:47.770Z,19.73
2019-03-21T17:46:51.989Z,20.40
2019-03-21T17:51:56.263Z,19.63
2019-03-21T17:57:00.477Z,20.23
2019-03-21T18:02:04.837Z,20.60
2019-03-21T18:07:09.081Z,22.03
2019-03-21T18:12:13.390Z,20.93
2019-03-21T18:17:18.656Z,23.13
2019-03-21T18:22:22.864Z,23.07
2019-03-21T18:27:27.138Z,22.27
2019-03-21T18:32:31.360Z,24.00
2019-03-21T18:37:36.182Z,22.97
2019-03-21T18:42:40.539Z,22.50
2019-03-21T18:47:44.907Z,22.53
2019-03-21T18:52:49.221Z,22.67
2019-03-21T18:57:53.516Z,25.17
2019-03-21T19:03:00.472Z,22.60
2019-03-21T19:08:04.451Z,22.43
2019-03-21T19:13:08.665Z,21.83
2019-03-21T19:18:12.903Z,22.03
2019-03-21T19:23:17.782Z,22.67
2019-03-21T19:28:21.988Z,20.97
2019-03-21T19:33:26.652Z,20.87
2019-03-21T19:38:30.884Z,21.33
2019-03-21T19:43:35.429Z,19.93
2019-03-21T19:48:49.757Z,20.40
2019-03-21T19:53:45.850Z,20.60
2019-03-21T19:58:50.111Z,20.83
2019-03-21T20:03:55.128Z,20.90
2019-03-21T20:08:59.641Z,20.33
2019-03-21T20:14:04.325Z,20.57
2019-03-21T20:19:08.678Z,19.97
2019-03-21T20:24:13.550Z,21.63
2019-03-21T20:29:22.314Z,19.70
2019-03-21T20:34:27.015Z,20.73
2019-03-21T20:39:31.377Z,22.67
2019-03-21T20:44:36.150Z,21.37
2019-03-21T20:49:40.641Z,19.60
2019-03-21T20:54:44.989Z,20.10
2019-03-21T20:59:49.552Z,20.47
2019-03-21T21:04:55.194Z,20.67
2019-03-21T21:09:59.642Z,20.03
2019-03-21T21:15:05.316Z,20.07
2019-03-21T21:20:10.161Z,19.53
2019-03-21T21:25:15.697Z,21.07
2019-03-21T21:30:20.679Z,19.00
2019-03-21T21:35:24.929Z,18.87
2019-03-21T21:40:32.603Z,19.87
2019-03-21T21:45:37.004Z,19.70
2019-03-21T21:50:41.220Z,18.93
2019-03-21T21:55:45.419Z,18.17
2019-03-21T22:00:49.613Z,19.13
2019-03-21T22:05:53.814Z,19.10
2019-03-21T22:10:58.266Z,19.87
2019-03-21T22:16:02.457Z,19.43
2019-03-21T22:21:06.681Z,17.77
2019-03-21T22:26:11.176Z,16.90
2019-03-21T22:31:15.364Z,18.43
2019-03-21T22:36:19.563Z,21.30
2019-03-21T22:41:23.859Z,18.70
2019-03-21T22:46:28.065Z,18.20
2019-03-21T22:51:32.253Z,19.30
2019-03-21T22:56:41.093Z,19.80
2019-03-21T23:01:42.378Z,20.27
2019-03-21T23:06:46.932Z,20.03
2019-03-21T23:11:51.845Z,19.33
2019-03-21T23:16:56.048Z,19.40
2019-03-21T23:22:00.243Z,21.70
2019-03-21T23:27:04.504Z,23.23
2019-03-21T23:32:08.729Z,24.57
2019-03-21T23:37:12.942Z,22.93
2019-03-21T23:42:17.160Z,22.13
2019-03-21T23:47:21.384Z,24.20
2019-03-21T23:52:25.858Z,23.60
2019-03-21T23:57:30.078Z,25.90
